createdAt,value
2023-01-12T00:00:57.046Z,9.43
2023-01-12T00:03:47.735Z,6.18
2023-01-12T00:06:37.944Z,9.27
2023-01-12T00:09:28.665Z,12.45
2023-01-12T00:12:18.857Z,8.27
2023-01-12T00:15:09.603Z,5.45
2023-01-12T00:18:00.751Z,9.27
2023-01-12T00:20:51.274Z,9.90
2023-01-12T00:23:42.691Z,12.38
2023-01-12T00:26:33.013Z,15.88
2023-01-12T00:29:23.831Z,8.30
2023-01-12T00:32:16.381Z,8.20
2023-01-12T00:35:06.415Z,10.57
2023-01-12T00:37:56.613Z,4.68
2023-01-12T00:40:46.705Z,7.10
2023-01-12T00:43:56.279Z,8.60
2023-01-12T00:46:46.567Z,12.57
2023-01-12T00:49:37.821Z,8.85
2023-01-12T00:52:31.339Z,7.32
2023-01-12T00:58:12.154Z,11.05
2023-01-12T01:01:09.479Z,10.48
2023-01-12T01:03:59.674Z,9.00
2023-01-12T01:06:50.139Z,5.53
2023-01-12T01:09:40.265Z,10.00
2023-01-12T01:12:30.178Z,6.18
2023-01-12T01:15:20.706Z,10.98
2023-01-12T01:18:10.932Z,9.55
2023-01-12T01:21:02.164Z,7.20
2023-01-12T01:23:52.978Z,7.85
2023-01-12T01:26:43.212Z,7.70
2023-01-12T01:29:33.196Z,5.95
2023-01-12T01:32:22.974Z,4.95
2023-01-12T01:35:14.297Z,7.40
2023-01-12T01:38:05.748Z,9.63
2023-01-12T01:40:55.683Z,7.68
2023-01-12T01:43:56.167Z,7.97
2023-01-12T01:46:55.069Z,8.85
2023-01-12T01:49:51.410Z,7.50
2023-01-12T01:52:48.061Z,6.43
2023-01-12T01:55:51.640Z,6.25
2023-01-12T01:58:49.564Z,12.55
2023-01-12T02:01:43.719Z,5.47
2023-01-12T02:04:35.401Z,9.75
2023-01-12T02:07:25.472Z,7.30
2023-01-12T02:10:16.488Z,7.35
2023-01-12T02:13:25.449Z,6.53
2023-01-12T02:16:25.389Z,7.25
2023-01-12T02:19:39.607Z,12.23
2023-01-12T02:22:58.745Z,10.80
2023-01-12T02:26:27.001Z,5.50
2023-01-12T02:29:35.578Z,4.78
2023-01-12T02:32:49.050Z,5.97
2023-01-12T02:35:50.893Z,7.50
2023-01-12T02:38:49.225Z,10.88
2023-01-12T02:42:13.400Z,5.68
2023-01-12T02:45:15.800Z,12.13
2023-01-12T02:48:23.972Z,5.10
2023-01-12T02:51:40.249Z,8.10
2023-01-12T02:54:33.319Z,9.07
2023-01-12T02:57:26.074Z,8.32
2023-01-12T03:00:18.264Z,8.98
2023-01-12T03:03:08.791Z,8.30
2023-01-12T03:05:59.848Z,8.18
2023-01-12T03:08:52.150Z,5.22
2023-01-12T03:11:43.448Z,10.57
2023-01-12T03:14:36.318Z,9.65
2023-01-12T03:17:39.536Z,8.93
2023-01-12T03:20:38.123Z,4.07
2023-01-12T03:23:35.253Z,8.82
2023-01-12T03:26:27.867Z,9.23
2023-01-12T03:29:41.756Z,7.63
2023-01-12T03:32:32.159Z,12.87
2023-01-12T03:35:27.593Z,11.35
2023-01-12T03:38:47.367Z,8.07
2023-01-12T03:42:02.607Z,12.48
2023-01-12T03:45:14.499Z,5.82
2023-01-12T03:48:30.006Z,9.15
2023-01-12T03:51:32.284Z,7.15
2023-01-12T03:54:24.379Z,10.48
2023-01-12T03:57:16.836Z,3.72
2023-01-12T04:00:12.460Z,14.77
2023-01-12T04:03:14.700Z,14.23
2023-01-12T04:06:05.399Z,7.18
2023-01-12T04:08:55.807Z,7.15
2023-01-12T04:12:04.477Z,8.32
2023-01-12T04:14:54.741Z,9.60
2023-01-12T04:17:45.064Z,11.55
2023-01-12T04:20:35.855Z,7.65
2023-01-12T04:23:26.337Z,10.77
2023-01-12T04:26:17.391Z,11.68
2023-01-12T04:29:07.577Z,9.23
2023-01-12T04:31:58.100Z,8.30
2023-01-12T04:34:48.630Z,11.18
2023-01-12T04:37:39.672Z,12.02
2023-01-12T04:40:29.669Z,18.13
2023-01-12T04:43:19.700Z,7.57
2023-01-12T04:46:10.787Z,6.88
2023-01-12T04:49:00.960Z,11.50
2023-01-12T04:51:51.017Z,9.82
2023-01-12T04:54:41.049Z,10.50
2023-01-12T04:57:31.246Z,11.35
2023-01-12T05:00:21.829Z,5.18
2023-01-12T05:03:13.377Z,13.23
2023-01-12T05:06:04.666Z,13.27
2023-01-12T05:09:13.507Z,8.85
2023-01-12T05:12:03.938Z,10.82
2023-01-12T05:14:54.472Z,6.72
2023-01-12T05:17:44.846Z,13.68
2023-01-12T05:20:35.025Z,7.13
2023-01-12T05:23:25.112Z,11.90
2023-01-12T05:26:15.266Z,10.45
2023-01-12T05:29:05.646Z,9.30
2023-01-12T05:31:55.622Z,14.43
2023-01-12T05:34:45.728Z,5.78
2023-01-12T05:37:35.652Z,9.13
2023-01-12T05:40:26.104Z,13.65
2023-01-12T05:43:35.816Z,9.15
2023-01-12T05:46:28.562Z,7.97
2023-01-12T05:49:18.627Z,10.93
2023-01-12T05:52:08.401Z,15.75
2023-01-12T05:54:58.380Z,7.25
2023-01-12T05:57:48.349Z,9.85
2023-01-12T06:00:38.362Z,11.38
2023-01-12T06:03:28.368Z,12.82
2023-01-12T06:06:20.265Z,10.52
2023-01-12T06:09:10.180Z,11.93
2023-01-12T06:12:18.619Z,10.98
2023-01-12T06:15:09.175Z,15.70
2023-01-12T06:17:59.179Z,11.63
2023-01-12T06:20:49.266Z,11.65
2023-01-12T06:23:39.129Z,9.40
2023-01-12T06:26:29.184Z,9.75
2023-01-12T06:29:19.687Z,18.00
2023-01-12T06:32:10.408Z,12.82
2023-01-12T06:35:07.052Z,14.02
2023-01-12T06:38:04.464Z,11.63
2023-01-12T06:40:57.136Z,9.75
2023-01-12T06:43:47.204Z,9.27
2023-01-12T06:46:37.363Z,7.03
2023-01-12T06:49:27.951Z,6.57
2023-01-12T06:52:22.498Z,8.98
2023-01-12T06:55:13.006Z,10.80
2023-01-12T06:58:04.462Z,9.27
2023-01-12T07:01:00.108Z,7.95
2023-01-12T07:03:50.464Z,8.63
2023-01-12T07:06:40.878Z,9.80
2023-01-12T07:09:30.710Z,9.98
2023-01-12T07:12:20.694Z,12.10
2023-01-12T07:15:11.319Z,3.92
2023-01-12T07:18:01.240Z,8.45
2023-01-12T07:20:51.300Z,10.65
2023-01-12T07:23:44.089Z,10.45
2023-01-12T07:26:34.462Z,6.50
2023-01-12T07:29:25.128Z,7.15
2023-01-12T07:32:15.218Z,8.52
2023-01-12T07:35:05.555Z,9.07
2023-01-12T07:37:55.949Z,5.32
2023-01-12T07:40:45.871Z,7.05
2023-01-12T07:43:35.805Z,6.70
2023-01-12T07:46:25.730Z,12.02
2023-01-12T07:49:16.321Z,9.50
2023-01-12T07:52:06.443Z,11.02
2023-01-12T07:54:56.736Z,11.02
2023-01-12T07:58:02.953Z,7.50
2023-01-12T08:00:52.834Z,8.10
2023-01-12T08:03:43.075Z,9.85
2023-01-12T08:06:34.649Z,9.38
2023-01-12T08:09:24.826Z,10.82
2023-01-12T08:12:15.195Z,10.10
2023-01-12T08:15:06.262Z,14.48
2023-01-12T08:18:03.344Z,10.88
2023-01-12T08:21:00.940Z,9.85
2023-01-12T08:23:54.747Z,11.13
2023-01-12T08:26:48.668Z,10.75
2023-01-12T08:29:44.064Z,8.25
2023-01-12T08:32:35.640Z,9.73
2023-01-12T08:35:28.517Z,7.80
2023-01-12T08:38:19.471Z,9.73
2023-01-12T08:41:28.459Z,9.52
2023-01-12T08:44:18.693Z,12.43
2023-01-12T08:47:28.600Z,6.63
2023-01-12T08:50:18.955Z,15.68
2023-01-12T08:53:10.335Z,7.03
2023-01-12T08:56:00.538Z,8.82
2023-01-12T08:58:50.529Z,9.90
2023-01-12T09:01:40.563Z,6.13
2023-01-12T09:04:31.212Z,9.20
2023-01-12T09:07:21.375Z,10.27
2023-01-12T09:10:11.807Z,8.25
2023-01-12T09:13:02.194Z,12.25
2023-01-12T09:16:11.201Z,10.05
2023-01-12T09:19:01.911Z,10.43
2023-01-12T09:21:51.766Z,11.05
2023-01-12T09:24:42.015Z,7.60
2023-01-12T09:27:32.071Z,8.43
2023-01-12T09:30:22.030Z,16.60
2023-01-12T09:33:12.648Z,8.50
2023-01-12T09:36:06.143Z,10.07
2023-01-12T09:38:57.285Z,14.38
2023-01-12T09:42:08.907Z,8.23
2023-01-12T09:45:17.725Z,6.45
2023-01-12T09:48:12.667Z,10.30
2023-01-12T09:51:16.461Z,8.75
2023-01-12T09:54:06.877Z,12.17
2023-01-12T09:57:37.184Z,8.35
2023-01-12T10:00:28.292Z,7.15
2023-01-12T10:03:27.092Z,7.30
2023-01-12T10:06:21.405Z,15.60
2023-01-12T10:09:20.295Z,7.35
2023-01-12T10:12:20.617Z,8.98
2023-01-12T10:15:31.200Z,7.25
2023-01-12T10:18:27.285Z,9.32
2023-01-12T10:21:17.710Z,9.60
2023-01-12T10:24:12.246Z,8.13
2023-01-12T10:27:03.789Z,4.20
2023-01-12T10:29:57.424Z,7.95
2023-01-12T10:32:47.552Z,5.38
2023-01-12T10:35:49.232Z,7.57
2023-01-12T10:38:55.529Z,7.90
2023-01-12T10:41:45.937Z,3.38
2023-01-12T10:44:35.995Z,9.38
2023-01-12T10:47:25.942Z,9.40
2023-01-12T10:50:31.329Z,8.98
2023-01-12T10:53:21.851Z,10.55
2023-01-12T10:56:19.747Z,7.95
2023-01-12T10:59:13.187Z,5.15
2023-01-12T11:02:14.032Z,8.95
2023-01-12T11:05:38.565Z,4.85
2023-01-12T11:08:29.344Z,6.78
2023-01-12T11:11:24.904Z,8.07
2023-01-12T11:14:27.621Z,4.93
2023-01-12T11:17:34.495Z,8.95
2023-01-12T11:20:43.050Z,6.28
2023-01-12T11:23:47.481Z,3.92
2023-01-12T11:29:56.273Z,6.88
2023-01-12T11:32:56.890Z,6.97
2023-01-12T11:35:51.011Z,3.50
2023-01-12T11:38:47.635Z,4.20
2023-01-12T11:42:18.054Z,3.67
2023-01-12T11:45:13.296Z,4.15
2023-01-12T11:48:22.047Z,3.72
2023-01-12T11:51:13.493Z,5.18
2023-01-12T11:54:06.800Z,5.90
2023-01-12T11:57:19.795Z,4.68
2023-01-12T12:00:42.133Z,2.75
2023-01-12T12:04:04.004Z,5.57
2023-01-12T12:07:23.408Z,1.48
2023-01-12T12:10:23.625Z,2.17
2023-01-12T12:13:13.539Z,5.90
2023-01-12T12:16:10.142Z,2.17
2023-01-12T12:19:29.573Z,1.45
2023-01-12T12:22:53.486Z,2.40
2023-01-12T12:26:15.772Z,4.32
2023-01-12T12:29:14.611Z,2.35
2023-01-12T12:32:32.752Z,3.45
2023-01-12T12:36:08.856Z,4.05
2023-01-12T12:39:31.780Z,0.35
2023-01-12T12:42:53.028Z,0.82
2023-01-12T12:45:52.373Z,4.40
2023-01-12T12:48:57.972Z,2.72
2023-01-12T12:51:49.874Z,2.30
2023-01-12T12:54:40.607Z,0.98
2023-01-12T12:57:30.484Z,1.73
2023-01-12T13:00:31.277Z,4.90
2023-01-12T13:03:39.710Z,2.97
2023-01-12T13:06:42.436Z,1.90
2023-01-12T13:09:37.360Z,1.83
2023-01-12T13:12:33.856Z,5.38
2023-01-12T13:15:29.417Z,2.38
2023-01-12T13:19:03.546Z,3.10
2023-01-12T13:21:57.927Z,1.98
2023-01-12T13:24:48.039Z,3.28
2023-01-12T13:27:59.952Z,1.65
2023-01-12T13:30:52.771Z,0.70
2023-01-12T13:33:43.238Z,1.20
2023-01-12T13:36:33.168Z,3.25
2023-01-12T13:39:23.233Z,2.08
2023-01-12T13:42:38.683Z,1.90
2023-01-12T13:45:29.318Z,0.55
2023-01-12T13:48:21.049Z,1.05
2023-01-12T13:51:36.194Z,1.55
2023-01-12T13:57:25.786Z,4.57
2023-01-12T14:00:22.056Z,1.45
2023-01-12T14:03:30.691Z,1.20
2023-01-12T14:06:48.125Z,0.93
2023-01-12T14:10:06.092Z,3.00
2023-01-12T14:13:11.653Z,0.52
2023-01-12T14:16:24.124Z,0.85
2023-01-12T14:19:28.181Z,1.65
2023-01-12T14:22:20.148Z,0.47
2023-01-12T14:25:25.365Z,0.50
2023-01-12T14:28:18.205Z,1.17
2023-01-12T14:31:18.065Z,2.10
2023-01-12T14:34:23.544Z,1.13
2023-01-12T14:37:27.654Z,3.78
2023-01-12T14:40:38.023Z,2.45
2023-01-12T14:43:54.722Z,1.85
2023-01-12T14:46:53.299Z,2.88
2023-01-12T14:49:43.732Z,1.85
2023-01-12T14:52:33.815Z,5.05
2023-01-12T14:55:40.528Z,0.93
2023-01-12T14:58:30.391Z,2.75
2023-01-12T15:01:33.776Z,1.15
2023-01-12T15:04:25.271Z,6.40
2023-01-12T15:07:18.780Z,1.83
2023-01-12T15:10:08.993Z,1.95
2023-01-12T15:13:18.245Z,4.05
2023-01-12T15:16:27.492Z,4.50
2023-01-12T15:19:36.433Z,3.80
2023-01-12T15:22:47.376Z,5.18
2023-01-12T15:25:41.283Z,8.52
2023-01-12T15:28:32.106Z,4.60
2023-01-12T15:31:26.957Z,1.42
2023-01-12T15:34:17.867Z,1.00
2023-01-12T15:37:14.432Z,2.63
2023-01-12T15:40:04.816Z,1.55
2023-01-12T15:42:55.419Z,3.17
2023-01-12T15:45:46.893Z,2.90
2023-01-12T15:48:37.055Z,4.72
2023-01-12T15:51:27.299Z,1.23
2023-01-12T15:54:19.249Z,0.82
2023-01-12T15:57:13.969Z,1.00
2023-01-12T16:00:04.317Z,1.42
2023-01-12T16:02:58.838Z,0.77
2023-01-12T16:05:54.916Z,2.90
2023-01-12T16:08:45.314Z,1.35
2023-01-12T16:11:35.327Z,3.17
2023-01-12T16:14:25.190Z,8.82
2023-01-12T16:17:15.312Z,3.72
2023-01-12T16:20:06.079Z,1.40
2023-01-12T16:22:57.305Z,1.05
2023-01-12T16:25:55.428Z,1.42
2023-01-12T16:28:45.472Z,3.60
2023-01-12T16:31:38.779Z,1.60
2023-01-12T16:34:29.311Z,2.35
2023-01-12T16:37:22.912Z,1.95
2023-01-12T16:40:13.224Z,3.78
2023-01-12T16:43:03.426Z,3.85
2023-01-12T16:45:53.504Z,1.40
2023-01-12T16:48:43.804Z,9.10
2023-01-12T16:51:34.593Z,4.88
2023-01-12T16:54:24.985Z,2.33
2023-01-12T16:57:16.919Z,3.58
2023-01-12T17:00:10.068Z,2.80
2023-01-12T17:03:02.574Z,1.60
2023-01-12T17:05:53.233Z,5.70
2023-01-12T17:08:43.803Z,2.25
2023-01-12T17:11:35.164Z,1.33
2023-01-12T17:14:27.496Z,4.32
2023-01-12T17:17:18.285Z,1.40
2023-01-12T17:20:09.078Z,6.10
2023-01-12T17:22:59.346Z,1.58
2023-01-12T17:25:49.623Z,3.22
2023-01-12T17:28:41.007Z,3.80
2023-01-12T17:31:31.470Z,2.60
2023-01-12T17:34:22.257Z,6.72
2023-01-12T17:37:45.029Z,25.15
2023-01-12T17:40:35.408Z,5.78
2023-01-12T17:43:26.671Z,3.42
2023-01-12T17:46:20.233Z,8.20
2023-01-12T17:49:10.834Z,3.07
2023-01-12T17:52:01.014Z,4.95
2023-01-12T17:54:51.373Z,4.90
2023-01-12T17:57:42.023Z,5.60
2023-01-12T18:00:32.794Z,6.32
2023-01-12T18:03:23.668Z,5.93
2023-01-12T18:06:18.550Z,3.15
2023-01-12T18:09:16.289Z,2.90
2023-01-12T18:12:06.626Z,2.92
2023-01-12T18:14:56.494Z,2.80
2023-01-12T18:17:46.816Z,3.63
2023-01-12T18:20:36.665Z,4.72
2023-01-12T18:23:26.767Z,3.45
2023-01-12T18:26:19.637Z,5.45
2023-01-12T18:29:10.523Z,2.15
2023-01-12T18:32:00.780Z,6.38
2023-01-12T18:34:50.913Z,5.03
2023-01-12T18:37:41.067Z,2.88
2023-01-12T18:40:31.483Z,4.10
2023-01-12T18:43:21.857Z,2.40
2023-01-12T18:46:12.760Z,5.78
2023-01-12T18:49:03.024Z,5.80
2023-01-12T18:52:12.928Z,5.22
2023-01-12T18:55:05.351Z,6.13
2023-01-12T18:57:55.813Z,4.70
2023-01-12T19:00:46.244Z,4.28
2023-01-12T19:03:41.517Z,4.63
2023-01-12T19:06:51.144Z,4.75
2023-01-12T19:09:41.713Z,3.03
2023-01-12T19:12:33.684Z,9.95
2023-01-12T19:15:42.571Z,5.03
2023-01-12T19:18:34.379Z,2.35
2023-01-12T19:21:43.279Z,8.00
2023-01-12T19:24:52.415Z,5.78
2023-01-12T19:28:06.066Z,5.35
2023-01-12T19:30:59.726Z,6.28
2023-01-12T19:33:50.367Z,3.65
2023-01-12T19:36:40.532Z,4.45
2023-01-12T19:39:49.408Z,3.22
2023-01-12T19:43:03.980Z,4.38
2023-01-12T19:45:58.967Z,1.83
2023-01-12T19:48:49.626Z,3.72
2023-01-12T19:51:40.148Z,7.88
2023-01-12T19:54:30.587Z,4.35
2023-01-12T19:57:20.553Z,4.18
2023-01-12T20:00:15.206Z,5.45
2023-01-12T20:03:05.724Z,4.32
2023-01-12T20:05:56.365Z,3.15
2023-01-12T20:08:46.837Z,3.75
2023-01-12T20:11:37.451Z,6.28
2023-01-12T20:14:27.591Z,5.10
2023-01-12T20:17:17.511Z,3.60
2023-01-12T20:20:08.590Z,2.95
2023-01-12T20:22:59.297Z,4.95
2023-01-12T20:25:49.956Z,2.45
2023-01-12T20:28:40.298Z,2.25
2023-01-12T20:31:32.877Z,3.53
2023-01-12T20:34:23.076Z,2.50
2023-01-12T20:37:13.658Z,5.57
2023-01-12T20:40:04.988Z,1.55
2023-01-12T20:42:55.522Z,4.65
2023-01-12T20:45:46.141Z,12.75
2023-01-12T20:48:36.557Z,6.90
2023-01-12T20:51:26.920Z,5.78
2023-01-12T20:54:18.120Z,4.10
2023-01-12T20:57:10.125Z,9.95
2023-01-12T21:00:00.190Z,5.80
2023-01-12T21:02:50.428Z,4.05
2023-01-12T21:05:42.918Z,3.85
2023-01-12T21:08:33.116Z,1.85
2023-01-12T21:11:23.626Z,5.38
2023-01-12T21:14:14.085Z,2.75
2023-01-12T21:17:06.114Z,5.00
2023-01-12T21:19:56.335Z,4.78
2023-01-12T21:22:46.838Z,4.40
2023-01-12T21:25:42.043Z,2.70
2023-01-12T21:28:32.492Z,4.32
2023-01-12T21:31:22.693Z,1.58
2023-01-12T21:34:13.016Z,2.03
2023-01-12T21:37:03.527Z,2.72
2023-01-12T21:39:54.942Z,2.90
2023-01-12T21:43:03.660Z,3.47
2023-01-12T21:45:54.667Z,1.30
2023-01-12T21:48:45.097Z,4.50
2023-01-12T21:51:35.421Z,4.05
2023-01-12T21:54:25.395Z,2.30
2023-01-12T21:57:15.330Z,2.00
2023-01-12T22:00:06.964Z,1.60
2023-01-12T22:03:02.115Z,4.15
2023-01-12T22:05:53.588Z,2.95
2023-01-12T22:08:43.663Z,1.27
2023-01-12T22:11:33.835Z,1.98
2023-01-12T22:14:24.371Z,0.93
2023-01-12T22:17:14.509Z,1.10
2023-01-12T22:20:05.031Z,1.65
2023-01-12T22:22:55.715Z,1.80
2023-01-12T22:25:45.897Z,2.17
2023-01-12T22:28:37.787Z,3.42
2023-01-12T22:31:28.886Z,4.18
2023-01-12T22:34:19.173Z,1.15
2023-01-12T22:37:09.692Z,6.50
2023-01-12T22:40:00.219Z,3.90
2023-01-12T22:43:08.902Z,3.40
2023-01-12T22:45:59.149Z,9.18
2023-01-12T22:48:50.749Z,1.85
2023-01-12T22:51:40.717Z,1.48
2023-01-12T22:54:31.052Z,1.83
2023-01-12T22:57:21.688Z,4.32
2023-01-12T23:00:13.010Z,2.95
2023-01-12T23:03:08.024Z,3.03
2023-01-12T23:05:58.538Z,2.70
2023-01-12T23:08:49.694Z,4.10
2023-01-12T23:11:39.966Z,3.60
2023-01-12T23:14:30.586Z,2.50
2023-01-12T23:17:20.834Z,2.95
2023-01-12T23:20:11.405Z,1.95
2023-01-12T23:23:03.397Z,7.00
2023-01-12T23:25:54.068Z,3.85
2023-01-12T23:28:49.822Z,3.75
2023-01-12T23:31:40.362Z,1.40
2023-01-12T23:34:30.724Z,3.75
2023-01-12T23:37:20.943Z,3.53
2023-01-12T23:40:11.460Z,4.65
2023-01-12T23:43:01.831Z,4.00
2023-01-12T23:45:52.508Z,5.65
2023-01-12T23:48:43.246Z,2.92
2023-01-12T23:51:33.599Z,2.70
2023-01-12T23:54:23.954Z,2.83
2023-01-12T23:57:14.327Z,4.47
